createdAt,value
2019-02-23T00:00:04.993Z,0
2019-02-23T00:01:14.926Z,0
2019-02-23T00:02:24.845Z,0
2019-02-23T00:03:34.768Z,0
2019-02-23T00:04:44.688Z,0
2019-02-23T00:05:54.610Z,0
2019-02-23T00:07:04.527Z,0
2019-02-23T00:08:14.454Z,0
2019-02-23T00:09:24.372Z,0
2019-02-23T00:10:34.299Z,0
2019-02-23T00:11:44.223Z,0
2019-02-23T00:12:54.147Z,0
2019-02-23T00:14:04.074Z,0
2019-02-23T00:15:14.011Z,0
2019-02-23T00:16:23.929Z,0
2019-02-23T00:17:33.844Z,0
2019-02-23T00:18:43.767Z,0
2019-02-23T00:19:53.686Z,0
2019-02-23T00:21:03.611Z,0
2019-02-23T00:22:13.532Z,0
2019-02-23T00:23:23.636Z,0
2019-02-23T00:24:33.563Z,0
2019-02-23T00:25:43.479Z,0
2019-02-23T00:26:53.402Z,0
2019-02-23T00:28:03.321Z,0
2019-02-23T00:29:13.238Z,0
2019-02-23T00:30:23.156Z,0
2019-02-23T00:31:33.073Z,0
2019-02-23T00:32:42.992Z,0
2019-02-23T00:33:52.911Z,0
2019-02-23T00:35:02.949Z,0
2019-02-23T00:36:12.873Z,0
2019-02-23T00:37:22.791Z,0
2019-02-23T00:38:32.712Z,0
2019-02-23T00:39:42.706Z,0
2019-02-23T00:40:52.627Z,0
2019-02-23T00:42:02.549Z,0
2019-02-23T00:43:12.464Z,0
2019-02-23T00:44:22.380Z,0
2019-02-23T00:45:32.302Z,0
2019-02-23T00:46:42.321Z,0
2019-02-23T00:47:52.239Z,0
2019-02-23T00:49:02.165Z,0
2019-02-23T00:50:12.090Z,0
2019-02-23T00:51:22.005Z,0
2019-02-23T00:52:32.046Z,0
2019-02-23T00:53:41.717Z,0
2019-02-23T00:54:51.650Z,0
2019-02-23T00:56:01.582Z,0
2019-02-23T00:57:11.500Z,0
2019-02-23T00:58:21.439Z,0
2019-02-23T00:59:31.357Z,0
2019-02-23T01:00:41.272Z,0
2019-02-23T01:01:51.195Z,0
2019-02-23T01:03:01.127Z,0
2019-02-23T01:04:11.047Z,0
2019-02-23T01:05:20.968Z,0
2019-02-23T01:06:30.897Z,0
2019-02-23T01:07:40.821Z,0
2019-02-23T01:08:50.740Z,0
2019-02-23T01:10:00.659Z,0
2019-02-23T01:11:10.586Z,0
2019-02-23T01:12:20.507Z,0
2019-02-23T01:13:30.424Z,0
2019-02-23T01:14:40.340Z,0
2019-02-23T01:15:50.258Z,0
2019-02-23T01:17:00.195Z,0
2019-02-23T01:18:10.201Z,0
2019-02-23T01:19:20.159Z,0
2019-02-23T01:20:30.079Z,0
2019-02-23T01:21:40.000Z,0
2019-02-23T01:22:49.924Z,0
2019-02-23T01:23:59.853Z,0
2019-02-23T01:25:09.537Z,0
2019-02-23T01:26:19.464Z,0
2019-02-23T01:27:29.488Z,0
2019-02-23T01:28:39.419Z,0
2019-02-23T01:29:49.342Z,0
2019-02-23T01:30:59.259Z,0
2019-02-23T01:32:09.183Z,0
2019-02-23T01:33:19.202Z,0
2019-02-23T01:34:29.134Z,0
2019-02-23T01:35:39.055Z,0
2019-02-23T01:36:48.723Z,0
2019-02-23T01:37:58.644Z,0
2019-02-23T01:39:08.737Z,0
2019-02-23T01:40:18.662Z,0
2019-02-23T01:41:28.579Z,0
2019-02-23T01:42:38.496Z,0
2019-02-23T01:43:48.423Z,0
2019-02-23T01:44:58.454Z,0
2019-02-23T01:46:08.375Z,0
2019-02-23T01:47:18.292Z,0
2019-02-23T01:48:28.217Z,0
2019-02-23T01:49:38.140Z,0
2019-02-23T01:50:48.061Z,0
2019-02-23T01:51:57.982Z,0
2019-02-23T01:53:07.906Z,0
2019-02-23T01:54:17.828Z,0
2019-02-23T01:55:27.747Z,0
2019-02-23T01:56:37.762Z,0
2019-02-23T01:57:47.689Z,0
2019-02-23T01:58:57.626Z,0
2019-02-23T02:00:07.621Z,0
2019-02-23T02:01:17.540Z,0
2019-02-23T02:02:27.462Z,0
2019-02-23T02:03:37.378Z,0
2019-02-23T02:04:47.298Z,0
2019-02-23T02:05:57.227Z,0
2019-02-23T02:07:07.232Z,0
2019-02-23T02:08:17.255Z,0
2019-02-23T02:09:27.182Z,0
2019-02-23T02:10:37.100Z,0
2019-02-23T02:11:47.016Z,0
2019-02-23T02:12:56.978Z,0
2019-02-23T02:14:07.007Z,0
2019-02-23T02:15:16.929Z,0
2019-02-23T02:16:26.853Z,0
2019-02-23T02:17:36.776Z,0
2019-02-23T02:18:46.788Z,0
2019-02-23T02:19:56.757Z,0
2019-02-23T02:21:18.117Z,0
2019-02-23T02:22:28.042Z,0
2019-02-23T02:23:37.977Z,0
2019-02-23T02:24:47.894Z,0
2019-02-23T02:25:57.935Z,0
2019-02-23T02:27:07.850Z,0
2019-02-23T02:28:17.774Z,0
2019-02-23T02:29:27.446Z,0
2019-02-23T02:30:37.124Z,0
2019-02-23T02:31:47.055Z,0
2019-02-23T02:32:57.002Z,0
2019-02-23T02:34:06.924Z,0
2019-02-23T02:35:16.852Z,0
2019-02-23T02:36:26.793Z,0
2019-02-23T02:37:36.819Z,0
2019-02-23T02:38:46.760Z,0
2019-02-23T02:39:56.688Z,0
2019-02-23T02:41:06.365Z,0
2019-02-23T02:42:16.299Z,0
2019-02-23T02:43:26.331Z,0
2019-02-23T02:44:36.266Z,0
2019-02-23T02:45:46.200Z,0
2019-02-23T02:46:56.121Z,0
2019-02-23T02:48:06.051Z,0
2019-02-23T02:49:15.968Z,0
2019-02-23T02:50:31.458Z,0
2019-02-23T02:51:41.400Z,0
2019-02-23T02:52:51.332Z,0
2019-02-23T02:54:01.258Z,0
2019-02-23T02:55:11.223Z,0
2019-02-23T02:56:21.143Z,0
2019-02-23T02:57:31.071Z,0
2019-02-23T02:58:40.999Z,0
2019-02-23T02:59:50.928Z,0
2019-02-23T03:01:00.956Z,0
2019-02-23T03:02:10.885Z,0
2019-02-23T03:03:20.826Z,0
2019-02-23T03:04:30.761Z,0
2019-02-23T03:05:40.680Z,0
2019-02-23T03:06:50.701Z,0
2019-02-23T03:08:00.621Z,0
2019-02-23T03:09:10.547Z,0
2019-02-23T03:10:20.480Z,0
2019-02-23T03:11:30.422Z,0
2019-02-23T03:12:40.458Z,0
2019-02-23T03:13:50.383Z,0
2019-02-23T03:15:00.309Z,0
2019-02-23T03:16:10.282Z,0
2019-02-23T03:17:20.208Z,0
2019-02-23T03:18:30.252Z,0
2019-02-23T03:19:40.167Z,0
2019-02-23T03:20:50.084Z,0
2019-02-23T03:21:59.759Z,0
2019-02-23T03:23:09.434Z,0
2019-02-23T03:24:19.456Z,0
2019-02-23T03:25:29.417Z,0
2019-02-23T03:26:39.338Z,0
2019-02-23T03:27:49.275Z,0
2019-02-23T03:28:59.200Z,0
2019-02-23T03:30:09.301Z,0
2019-02-23T03:31:19.270Z,0
2019-02-23T03:32:29.218Z,0
2019-02-23T03:33:39.208Z,0
2019-02-23T03:34:48.908Z,0
2019-02-23T03:35:58.966Z,0
2019-02-23T03:37:08.893Z,0
2019-02-23T03:38:18.816Z,0
2019-02-23T03:39:28.734Z,0
2019-02-23T03:40:38.660Z,0
2019-02-23T03:41:48.584Z,0
2019-02-23T03:42:58.521Z,0
2019-02-23T03:44:08.448Z,0
2019-02-23T03:45:18.391Z,0
2019-02-23T03:46:28.339Z,0
2019-02-23T03:47:38.268Z,0
2019-02-23T03:48:48.208Z,0
2019-02-23T03:49:58.127Z,0
2019-02-23T03:51:08.058Z,0
2019-02-23T03:52:17.987Z,0
2019-02-23T03:53:27.909Z,0
2019-02-23T03:54:37.830Z,0
2019-02-23T03:55:47.753Z,0
2019-02-23T03:56:57.673Z,0
2019-02-23T03:58:07.591Z,0
2019-02-23T03:59:17.609Z,0
2019-02-23T04:00:27.541Z,0
2019-02-23T04:01:37.471Z,0
2019-02-23T04:02:47.422Z,0
2019-02-23T04:03:57.352Z,0
2019-02-23T04:05:07.573Z,0
2019-02-23T04:06:17.517Z,0
2019-02-23T04:07:27.439Z,0
2019-02-23T04:08:37.376Z,0
2019-02-23T04:09:47.296Z,0
2019-02-23T04:10:57.320Z,0
2019-02-23T04:12:07.293Z,0
2019-02-23T04:13:17.245Z,0
2019-02-23T04:14:27.173Z,0
2019-02-23T04:15:37.103Z,0
2019-02-23T04:16:47.023Z,0
2019-02-23T04:17:56.940Z,0
2019-02-23T04:19:06.881Z,0
2019-02-23T04:20:16.806Z,0
2019-02-23T04:21:26.738Z,0
2019-02-23T04:22:36.418Z,0
2019-02-23T04:23:46.341Z,0
2019-02-23T04:24:56.379Z,0
2019-02-23T04:26:06.309Z,0
2019-02-23T04:27:16.231Z,0
2019-02-23T04:28:26.158Z,0
2019-02-23T04:29:36.078Z,0
2019-02-23T04:30:46.008Z,0
2019-02-23T04:31:55.956Z,0
2019-02-23T04:33:05.908Z,0
2019-02-23T04:34:15.841Z,0
2019-02-23T04:35:25.767Z,0
2019-02-23T04:36:35.689Z,0
2019-02-23T04:37:45.360Z,0
2019-02-23T04:38:55.279Z,0
2019-02-23T04:40:05.347Z,0
2019-02-23T04:41:15.270Z,0
2019-02-23T04:42:25.218Z,0
2019-02-23T04:43:34.892Z,0
2019-02-23T04:44:44.631Z,0
2019-02-23T04:45:54.860Z,0
2019-02-23T04:47:04.530Z,0
2019-02-23T04:48:14.205Z,0
2019-02-23T04:49:25.914Z,0
2019-02-23T04:50:36.039Z,0
2019-02-23T04:51:46.063Z,0
2019-02-23T04:52:55.984Z,0
2019-02-23T04:54:05.654Z,0
2019-02-23T04:55:15.580Z,0
2019-02-23T04:56:25.506Z,0
2019-02-23T04:57:35.559Z,0
2019-02-23T04:58:45.502Z,0
2019-02-23T04:59:55.496Z,0
2019-02-23T05:01:05.443Z,0
2019-02-23T05:02:15.365Z,0
2019-02-23T05:03:25.406Z,0
2019-02-23T05:04:35.331Z,0
2019-02-23T05:05:45.249Z,0
2019-02-23T05:06:55.183Z,0
2019-02-23T05:08:05.120Z,0
2019-02-23T05:09:15.086Z,0
2019-02-23T05:10:25.025Z,0
2019-02-23T05:11:34.955Z,0
2019-02-23T05:12:44.902Z,0
2019-02-23T05:13:54.848Z,0
2019-02-23T05:15:05.104Z,0
2019-02-23T05:16:15.029Z,0
2019-02-23T05:17:24.952Z,0
2019-02-23T05:18:34.893Z,0
2019-02-23T05:19:44.814Z,0
2019-02-23T05:20:54.887Z,0
2019-02-23T05:22:04.818Z,0
2019-02-23T05:23:14.748Z,0
2019-02-23T05:24:24.415Z,0
2019-02-23T05:25:34.345Z,0
2019-02-23T05:26:44.376Z,0
2019-02-23T05:27:54.296Z,0
2019-02-23T05:29:03.979Z,0
2019-02-23T05:30:13.914Z,0
2019-02-23T05:31:26.921Z,0
2019-02-23T05:32:36.855Z,0
2019-02-23T05:33:46.780Z,0
2019-02-23T05:34:56.727Z,0
2019-02-23T05:36:06.647Z,0
2019-02-23T05:37:16.563Z,0
2019-02-23T05:38:26.492Z,0
2019-02-23T05:39:36.430Z,0
2019-02-23T05:40:46.403Z,0
2019-02-23T05:41:56.336Z,0
2019-02-23T05:43:08.532Z,0
2019-02-23T05:44:18.562Z,0
2019-02-23T05:45:28.482Z,0
2019-02-23T05:46:38.427Z,0
2019-02-23T05:47:48.351Z,0
2019-02-23T05:48:58.269Z,0
2019-02-23T05:50:08.190Z,0
2019-02-23T05:51:18.148Z,0
2019-02-23T05:52:28.093Z,0
2019-02-23T05:53:38.019Z,0
2019-02-23T05:54:47.942Z,0
2019-02-23T05:55:57.864Z,4
2019-02-23T05:57:07.570Z,4
2019-02-23T05:58:17.272Z,0
2019-02-23T05:59:27.204Z,4
2019-02-23T06:00:37.133Z,4
2019-02-23T06:01:47.160Z,0
2019-02-23T06:02:56.842Z,4
2019-02-23T06:04:06.518Z,4
2019-02-23T06:05:16.188Z,4
2019-02-23T06:06:26.120Z,4
2019-02-23T06:07:36.191Z,8
2019-02-23T06:08:46.114Z,8
2019-02-23T06:09:56.036Z,12
2019-02-23T06:11:05.965Z,8
2019-02-23T06:12:15.974Z,16
2019-02-23T06:13:25.998Z,16
2019-02-23T06:14:35.921Z,20
2019-02-23T06:15:45.851Z,24
2019-02-23T06:16:55.769Z,28
2019-02-23T06:18:05.725Z,32
2019-02-23T06:19:15.761Z,36
2019-02-23T06:20:25.704Z,40
2019-02-23T06:21:35.620Z,48
2019-02-23T06:22:46.769Z,56
2019-02-23T06:23:56.972Z,64
2019-02-23T06:25:06.929Z,64
2019-02-23T06:26:16.883Z,76
2019-02-23T06:27:26.840Z,84
2019-02-23T06:28:36.820Z,88
2019-02-23T06:29:46.819Z,100
2019-02-23T06:30:56.753Z,108
2019-02-23T06:32:06.673Z,120
2019-02-23T06:33:16.614Z,128
2019-02-23T06:34:26.537Z,144
2019-02-23T06:35:36.235Z,160
2019-02-23T06:36:46.158Z,176
2019-02-23T06:37:58.254Z,192
2019-02-23T06:39:08.173Z,204
2019-02-23T06:40:18.123Z,220
2019-02-23T06:41:28.048Z,236
2019-02-23T06:42:38.066Z,260
2019-02-23T06:43:47.993Z,280
2019-02-23T06:44:57.915Z,304
2019-02-23T06:46:07.942Z,324
2019-02-23T06:47:17.859Z,356
2019-02-23T06:48:27.883Z,380
2019-02-23T06:49:37.804Z,408
2019-02-23T06:50:47.723Z,440
2019-02-23T06:52:08.779Z,476
2019-02-23T06:53:18.713Z,520
2019-02-23T06:54:28.630Z,564
2019-02-23T06:55:38.551Z,604
2019-02-23T06:56:48.498Z,656
2019-02-23T06:57:58.423Z,692
2019-02-23T06:59:08.446Z,724
2019-02-23T07:00:18.450Z,756
2019-02-23T07:01:28.377Z,784
2019-02-23T07:02:38.302Z,812
2019-02-23T07:03:48.269Z,848
2019-02-23T07:04:58.302Z,876
2019-02-23T07:06:08.238Z,892
2019-02-23T07:07:18.171Z,912
2019-02-23T07:08:28.099Z,932
2019-02-23T07:09:37.814Z,972
2019-02-23T07:10:47.738Z,1016
2019-02-23T07:11:57.658Z,1056
2019-02-23T07:13:07.607Z,1112
2019-02-23T07:14:17.522Z,1168
2019-02-23T07:15:27.527Z,1216
2019-02-23T07:16:37.543Z,1276
2019-02-23T07:17:47.473Z,1332
2019-02-23T07:18:57.393Z,1376
2019-02-23T07:20:07.452Z,1444
2019-02-23T07:21:17.372Z,1516
2019-02-23T07:22:27.302Z,1604
2019-02-23T07:23:37.231Z,1660
2019-02-23T07:24:47.154Z,1744
2019-02-23T07:25:57.074Z,1820
2019-02-23T07:27:06.996Z,1864
2019-02-23T07:28:18.126Z,1904
2019-02-23T07:29:28.110Z,1960
2019-02-23T07:30:38.027Z,1984
2019-02-23T07:31:47.945Z,2020
2019-02-23T07:32:57.867Z,2080
2019-02-23T07:34:07.807Z,2124
2019-02-23T07:35:17.730Z,2160
2019-02-23T07:36:27.649Z,2264
2019-02-23T07:37:37.569Z,2360
2019-02-23T07:38:47.492Z,2416
2019-02-23T07:39:57.509Z,2544
2019-02-23T07:41:07.441Z,2688
2019-02-23T07:42:17.363Z,2804
2019-02-23T07:43:27.285Z,2864
2019-02-23T07:44:36.959Z,2956
2019-02-23T07:45:47.000Z,3056
2019-02-23T07:46:57.003Z,3116
2019-02-23T07:48:06.670Z,3208
2019-02-23T07:49:16.589Z,3260
2019-02-23T07:50:25.997Z,3300
2019-02-23T07:51:36.027Z,3332
2019-02-23T07:52:45.946Z,3364
2019-02-23T07:53:55.868Z,3348
2019-02-23T07:55:05.792Z,3272
2019-02-23T07:56:15.715Z,3292
2019-02-23T07:57:25.645Z,3316
2019-02-23T07:58:35.568Z,3356
2019-02-23T07:59:45.490Z,3408
2019-02-23T08:00:55.425Z,3464
2019-02-23T08:02:05.350Z,3524
2019-02-23T08:03:15.369Z,3676
2019-02-23T08:04:25.038Z,3784
2019-02-23T08:05:34.961Z,3932
2019-02-23T08:06:44.951Z,4028
2019-02-23T08:07:55.160Z,3928
2019-02-23T08:09:05.078Z,3896
2019-02-23T08:10:15.005Z,3924
2019-02-23T08:11:24.930Z,4008
2019-02-23T08:12:34.864Z,4076
2019-02-23T08:13:45.645Z,4172
2019-02-23T08:14:55.672Z,4288
2019-02-23T08:16:05.600Z,4420
2019-02-23T08:17:15.604Z,4656
2019-02-23T08:18:25.525Z,4876
2019-02-23T08:19:35.449Z,4956
2019-02-23T08:20:45.367Z,5108
2019-02-23T08:21:55.290Z,5208
2019-02-23T08:23:05.205Z,5288
2019-02-23T08:24:15.128Z,5352
2019-02-23T08:25:25.085Z,5388
2019-02-23T08:26:35.100Z,5408
2019-02-23T08:27:45.016Z,5424
2019-02-23T08:28:54.931Z,5424
2019-02-23T08:30:04.993Z,5524
2019-02-23T08:31:15.837Z,5744
2019-02-23T08:32:25.765Z,5928
2019-02-23T08:33:35.689Z,6140
2019-02-23T08:34:45.363Z,6316
2019-02-23T08:35:55.288Z,6364
2019-02-23T08:37:05.266Z,6592
2019-02-23T08:38:15.293Z,6632
2019-02-23T08:39:25.230Z,6528
2019-02-23T08:40:35.154Z,6388
2019-02-23T08:41:45.768Z,6272
2019-02-23T08:42:55.707Z,6244
2019-02-23T08:44:05.649Z,6488
2019-02-23T08:45:15.653Z,6608
2019-02-23T08:46:25.615Z,6740
2019-02-23T08:47:35.530Z,6696
2019-02-23T08:48:45.456Z,6576
2019-02-23T08:49:55.398Z,6396
2019-02-23T08:51:05.322Z,6156
2019-02-23T08:52:15.246Z,6064
2019-02-23T08:53:25.169Z,5988
2019-02-23T08:54:34.835Z,6088
2019-02-23T08:55:44.753Z,6372
2019-02-23T08:56:55.406Z,6684
2019-02-23T08:58:05.390Z,6948
2019-02-23T08:59:15.311Z,7388
2019-02-23T09:00:25.236Z,7640
2019-02-23T09:01:35.160Z,7812
2019-02-23T09:02:45.086Z,8152
2019-02-23T09:03:56.993Z,8472
2019-02-23T09:05:06.936Z,8624
2019-02-23T09:06:16.866Z,9020
2019-02-23T09:07:26.940Z,9148
2019-02-23T09:08:36.871Z,8348
2019-02-23T09:09:46.794Z,8112
2019-02-23T09:10:56.715Z,8212
2019-02-23T09:12:06.640Z,8124
2019-02-23T09:13:16.566Z,8032
2019-02-23T09:14:26.493Z,7968
2019-02-23T09:15:36.421Z,8080
2019-02-23T09:16:46.343Z,8128
2019-02-23T09:17:56.263Z,8216
2019-02-23T09:19:06.317Z,8216
2019-02-23T09:20:16.315Z,8140
2019-02-23T09:21:36.798Z,8124
2019-02-23T09:22:46.719Z,8108
2019-02-23T09:24:07.369Z,8040
2019-02-23T09:25:17.289Z,7868
2019-02-23T09:26:27.277Z,7796
2019-02-23T09:27:37.211Z,7760
2019-02-23T09:28:47.139Z,7912
2019-02-23T09:29:57.239Z,7956
2019-02-23T09:31:08.459Z,7612
2019-02-23T09:32:18.388Z,7628
2019-02-23T09:33:28.315Z,7612
2019-02-23T09:34:38.243Z,7500
2019-02-23T09:35:48.269Z,7420
2019-02-23T09:36:58.192Z,7336
2019-02-23T09:38:08.113Z,7288
2019-02-23T09:39:18.053Z,7188
2019-02-23T09:40:27.981Z,7060
2019-02-23T09:41:37.905Z,6948
2019-02-23T09:42:47.823Z,6764
2019-02-23T09:43:57.778Z,6676
2019-02-23T09:45:07.729Z,6672
2019-02-23T09:46:17.665Z,6712
2019-02-23T09:47:27.691Z,6764
2019-02-23T09:48:37.615Z,6620
2019-02-23T09:49:47.542Z,6396
2019-02-23T09:50:57.468Z,6492
2019-02-23T09:52:07.392Z,6648
2019-02-23T09:53:18.812Z,6880
2019-02-23T09:54:30.594Z,7120
2019-02-23T09:55:40.624Z,7444
2019-02-23T09:56:50.547Z,8048
2019-02-23T09:58:00.471Z,8148
2019-02-23T09:59:10.499Z,8236
2019-02-23T10:00:20.203Z,7892
2019-02-23T10:01:30.135Z,7920
2019-02-23T10:02:39.806Z,7580
2019-02-23T10:03:49.734Z,6888
2019-02-23T10:04:59.753Z,6632
2019-02-23T10:06:09.677Z,6576
2019-02-23T10:07:19.606Z,6832
2019-02-23T10:08:29.524Z,7260
2019-02-23T10:09:39.451Z,8040
2019-02-23T10:10:49.469Z,10436
2019-02-23T10:11:59.426Z,11580
2019-02-23T10:13:09.354Z,12376
2019-02-23T10:14:19.330Z,11468
2019-02-23T10:15:29.256Z,11912
2019-02-23T10:16:39.288Z,11196
2019-02-23T10:17:49.279Z,11228
2019-02-23T10:18:59.197Z,11444
2019-02-23T10:20:09.158Z,12156
2019-02-23T10:21:19.081Z,11236
2019-02-23T10:22:29.058Z,11804
2019-02-23T10:23:38.983Z,12204
2019-02-23T10:24:48.904Z,13364
2019-02-23T10:25:58.849Z,13904
2019-02-23T10:27:08.772Z,13560
2019-02-23T10:28:18.795Z,13536
2019-02-23T10:29:28.732Z,14584
2019-02-23T10:30:38.659Z,16220
2019-02-23T10:31:48.579Z,16680
2019-02-23T10:32:58.516Z,16776
2019-02-23T10:34:08.545Z,17120
2019-02-23T10:35:18.470Z,17536
2019-02-23T10:36:28.399Z,17344
2019-02-23T10:37:38.325Z,16672
2019-02-23T10:38:48.335Z,14152
2019-02-23T10:39:58.337Z,11472
2019-02-23T10:41:08.262Z,10392
2019-02-23T10:42:18.268Z,9844
2019-02-23T10:43:28.191Z,9420
2019-02-23T10:44:38.151Z,9068
2019-02-23T10:45:48.173Z,8800
2019-02-23T10:46:58.105Z,8544
2019-02-23T10:48:08.038Z,8136
2019-02-23T10:49:17.961Z,7608
2019-02-23T10:50:27.936Z,7068
2019-02-23T10:51:37.910Z,6736
2019-02-23T10:52:47.834Z,6492
2019-02-23T10:53:57.759Z,6312
2019-02-23T10:55:07.683Z,6144
2019-02-23T10:56:17.617Z,6032
2019-02-23T10:57:27.638Z,6108
2019-02-23T10:58:37.559Z,6416
2019-02-23T10:59:47.480Z,10276
2019-02-23T11:00:57.470Z,13284
2019-02-23T11:02:07.397Z,12608
2019-02-23T11:03:17.368Z,12404
2019-02-23T11:04:27.323Z,12860
2019-02-23T11:05:37.252Z,13240
2019-02-23T11:06:47.179Z,13448
2019-02-23T11:07:57.102Z,13400
2019-02-23T11:09:07.075Z,13696
2019-02-23T11:10:17.011Z,14244
2019-02-23T11:11:26.936Z,13840
2019-02-23T11:12:36.855Z,13704
2019-02-23T11:13:46.780Z,13836
2019-02-23T11:14:56.753Z,14036
2019-02-23T11:16:06.681Z,14248
2019-02-23T11:17:16.605Z,14132
2019-02-23T11:18:26.532Z,13696
2019-02-23T11:19:36.468Z,14468
2019-02-23T11:20:46.396Z,13916
2019-02-23T11:21:56.324Z,13092
2019-02-23T11:23:06.259Z,12832
2019-02-23T11:24:18.304Z,14104
2019-02-23T11:25:28.060Z,14788
2019-02-23T11:26:38.091Z,15024
2019-02-23T11:27:48.015Z,14868
2019-02-23T11:28:57.961Z,14564
2019-02-23T11:30:07.883Z,14100
2019-02-23T11:31:17.808Z,13860
2019-02-23T11:32:27.830Z,14164
2019-02-23T11:33:37.755Z,14308
2019-02-23T11:34:47.680Z,14596
2019-02-23T11:35:57.602Z,14368
2019-02-23T11:37:07.529Z,14636
2019-02-23T11:38:17.479Z,14524
2019-02-23T11:39:27.400Z,13896
2019-02-23T11:40:37.327Z,13532
2019-02-23T11:41:47.285Z,13376
2019-02-23T11:42:57.219Z,13032
2019-02-23T11:44:07.241Z,12636
2019-02-23T11:45:17.167Z,12680
2019-02-23T11:46:27.096Z,12632
2019-02-23T11:47:37.029Z,12548
2019-02-23T11:48:47.031Z,12400
2019-02-23T11:49:57.004Z,11904
2019-02-23T11:51:06.931Z,11356
2019-02-23T11:52:16.859Z,11320
2019-02-23T11:53:26.785Z,11104
2019-02-23T11:54:36.493Z,11076
2019-02-23T11:55:46.474Z,11188
2019-02-23T11:56:56.408Z,11312
2019-02-23T11:58:06.336Z,11236
2019-02-23T11:59:16.255Z,10992
2019-02-23T12:00:26.182Z,10984
2019-02-23T12:01:36.207Z,10888
2019-02-23T12:02:56.605Z,10872
2019-02-23T12:04:06.538Z,11148
2019-02-23T12:05:16.465Z,11544
2019-02-23T12:06:26.394Z,11804
2019-02-23T12:07:36.426Z,11928
2019-02-23T12:08:46.357Z,11780
2019-02-23T12:09:56.285Z,11088
2019-02-23T12:11:06.208Z,10876
2019-02-23T12:12:16.142Z,11252
2019-02-23T12:13:26.166Z,11500
2019-02-23T12:14:36.091Z,11428
2019-02-23T12:15:46.028Z,10988
2019-02-23T12:16:55.977Z,10300
2019-02-23T12:18:05.902Z,10064
2019-02-23T12:19:15.885Z,10120
2019-02-23T12:20:25.808Z,10092
2019-02-23T12:21:35.748Z,10060
2019-02-23T12:22:45.707Z,9604
2019-02-23T12:24:05.328Z,9680
2019-02-23T12:25:20.505Z,9724
2019-02-23T12:26:30.175Z,9948
2019-02-23T12:27:40.101Z,10108
2019-02-23T12:28:50.032Z,10056
2019-02-23T12:29:59.962Z,10088
2019-02-23T12:31:09.987Z,9980
2019-02-23T12:32:19.994Z,9832
2019-02-23T12:33:29.914Z,9852
2019-02-23T12:34:39.844Z,9696
2019-02-23T12:35:49.769Z,9604
2019-02-23T12:37:02.348Z,9420
2019-02-23T12:38:12.271Z,9604
2019-02-23T12:39:22.196Z,9412
2019-02-23T12:40:32.119Z,9396
2019-02-23T12:41:42.053Z,9392
2019-02-23T12:42:52.029Z,9500
2019-02-23T12:44:01.966Z,9940
2019-02-23T12:45:11.897Z,10256
2019-02-23T12:46:21.819Z,9820
2019-02-23T12:47:31.744Z,9488
2019-02-23T12:48:41.738Z,8744
2019-02-23T12:49:51.668Z,8436
2019-02-23T12:51:01.592Z,8840
2019-02-23T12:52:11.520Z,9136
2019-02-23T12:53:21.450Z,9000
2019-02-23T12:54:31.482Z,8628
2019-02-23T12:55:41.404Z,8108
2019-02-23T12:56:51.323Z,7868
2019-02-23T12:58:01.246Z,8608
2019-02-23T12:59:11.202Z,8912
2019-02-23T13:00:21.237Z,8968
2019-02-23T13:01:31.158Z,9076
2019-02-23T13:02:41.082Z,8896
2019-02-23T13:03:51.003Z,8800
2019-02-23T13:05:01.002Z,8596
2019-02-23T13:06:10.974Z,8724
2019-02-23T13:07:20.970Z,8740
2019-02-23T13:08:30.891Z,8936
2019-02-23T13:09:40.822Z,9084
2019-02-23T13:10:50.760Z,8904
2019-02-23T13:12:00.733Z,8988
2019-02-23T13:13:10.664Z,8640
2019-02-23T13:14:20.590Z,8356
2019-02-23T13:15:30.510Z,8148
2019-02-23T13:16:40.435Z,7840
2019-02-23T13:17:50.413Z,7580
2019-02-23T13:19:00.336Z,7656
2019-02-23T13:20:10.264Z,7836
2019-02-23T13:21:20.186Z,8276
2019-02-23T13:22:30.192Z,8896
2019-02-23T13:23:40.222Z,9296
2019-02-23T13:24:50.154Z,9172
2019-02-23T13:26:00.075Z,8488
2019-02-23T13:27:10.009Z,8072
2019-02-23T13:28:19.945Z,8504
2019-02-23T13:29:29.981Z,8776
2019-02-23T13:30:39.905Z,9000
2019-02-23T13:31:49.838Z,9144
2019-02-23T13:32:59.761Z,8688
2019-02-23T13:34:09.688Z,8372
2019-02-23T13:35:19.672Z,8008
2019-02-23T13:36:29.595Z,8024
2019-02-23T13:37:39.527Z,8076
2019-02-23T13:38:49.448Z,8304
2019-02-23T13:39:59.372Z,8568
2019-02-23T13:41:09.398Z,8220
2019-02-23T13:42:19.319Z,8108
2019-02-23T13:43:29.243Z,8176
2019-02-23T13:44:39.167Z,8432
2019-02-23T13:45:49.089Z,8432
2019-02-23T13:46:59.017Z,8276
2019-02-23T13:48:08.941Z,8056
2019-02-23T13:49:18.872Z,8072
2019-02-23T13:50:28.795Z,7900
2019-02-23T13:51:38.715Z,7824
2019-02-23T13:52:48.703Z,7608
2019-02-23T13:53:58.638Z,7144
2019-02-23T13:55:08.561Z,7128
2019-02-23T13:56:19.488Z,7200
2019-02-23T13:57:29.168Z,7368
2019-02-23T13:58:39.087Z,7604
2019-02-23T13:59:49.049Z,7332
2019-02-23T14:00:58.975Z,7284
2019-02-23T14:02:08.910Z,7308
2019-02-23T14:03:18.837Z,7384
2019-02-23T14:04:30.847Z,7344
2019-02-23T14:05:40.768Z,7340
2019-02-23T14:06:50.748Z,6968
2019-02-23T14:08:00.682Z,6844
2019-02-23T14:09:10.605Z,7112
2019-02-23T14:10:20.635Z,7112
2019-02-23T14:11:32.148Z,7212
2019-02-23T14:12:42.083Z,7324
2019-02-23T14:13:52.018Z,7244
2019-02-23T14:15:01.963Z,7224
2019-02-23T14:16:11.987Z,7388
2019-02-23T14:17:21.910Z,7372
2019-02-23T14:18:31.835Z,7244
2019-02-23T14:19:41.755Z,6944
2019-02-23T14:20:51.678Z,6676
2019-02-23T14:22:01.451Z,6376
2019-02-23T14:23:11.371Z,6096
2019-02-23T14:24:21.302Z,6008
2019-02-23T14:25:31.250Z,5824
2019-02-23T14:26:41.185Z,5632
2019-02-23T14:27:51.212Z,5416
2019-02-23T14:29:01.137Z,5348
2019-02-23T14:30:11.061Z,5368
2019-02-23T14:31:20.990Z,5364
2019-02-23T14:32:30.946Z,4920
2019-02-23T14:33:40.919Z,3936
2019-02-23T14:34:50.853Z,4520
2019-02-23T14:36:00.783Z,4604
2019-02-23T14:37:10.712Z,4372
2019-02-23T14:38:20.673Z,4428
2019-02-23T14:39:30.739Z,4440
2019-02-23T14:40:40.733Z,4476
2019-02-23T14:41:50.675Z,4396
2019-02-23T14:43:00.798Z,4388
2019-02-23T14:44:10.963Z,4292
2019-02-23T14:45:21.151Z,4248
2019-02-23T14:46:31.163Z,3348
2019-02-23T14:47:40.920Z,3064
2019-02-23T14:48:50.939Z,2580
2019-02-23T14:50:00.909Z,2468
2019-02-23T14:51:11.036Z,2708
2019-02-23T14:52:21.049Z,2672
2019-02-23T14:53:31.050Z,3464
2019-02-23T14:54:40.807Z,3404
2019-02-23T14:55:50.926Z,3472
2019-02-23T14:57:00.764Z,3308
2019-02-23T14:58:10.808Z,3528
2019-02-23T14:59:20.781Z,3400
2019-02-23T15:00:30.712Z,3360
2019-02-23T15:01:43.177Z,3240
2019-02-23T15:02:53.445Z,3184
2019-02-23T15:04:04.667Z,3104
2019-02-23T15:05:14.459Z,3168
2019-02-23T15:06:24.400Z,3272
2019-02-23T15:07:34.332Z,3316
2019-02-23T15:08:44.306Z,3164
2019-02-23T15:09:53.984Z,2792
2019-02-23T15:11:03.914Z,2500
2019-02-23T15:12:13.837Z,2328
2019-02-23T15:13:23.759Z,2292
2019-02-23T15:14:33.779Z,2408
2019-02-23T15:15:43.778Z,2332
2019-02-23T15:16:53.697Z,2556
2019-02-23T15:18:03.653Z,2296
2019-02-23T15:19:13.576Z,2296
2019-02-23T15:20:23.545Z,2400
2019-02-23T15:21:33.464Z,2068
2019-02-23T15:22:43.390Z,2040
2019-02-23T15:23:56.116Z,1980
2019-02-23T15:25:17.734Z,1984
2019-02-23T15:26:27.654Z,1720
2019-02-23T15:27:37.575Z,1676
2019-02-23T15:28:47.499Z,1728
2019-02-23T15:29:57.624Z,1676
2019-02-23T15:31:07.598Z,1656
2019-02-23T15:32:17.523Z,1556
2019-02-23T15:33:28.810Z,1452
2019-02-23T15:34:38.862Z,1388
2019-02-23T15:35:48.892Z,1336
2019-02-23T15:37:08.052Z,1292
2019-02-23T15:38:18.047Z,1232
2019-02-23T15:39:30.388Z,1160
2019-02-23T15:40:40.555Z,1112
2019-02-23T15:41:50.431Z,1040
2019-02-23T15:43:00.694Z,984
2019-02-23T15:44:10.573Z,932
2019-02-23T15:45:20.499Z,896
2019-02-23T15:46:31.881Z,852
2019-02-23T15:47:42.016Z,804
2019-02-23T15:48:52.319Z,764
2019-02-23T15:50:15.507Z,708
2019-02-23T15:51:25.521Z,672
2019-02-23T15:52:35.591Z,644
2019-02-23T15:53:45.633Z,620
2019-02-23T15:54:55.639Z,596
2019-02-23T15:56:05.580Z,572
2019-02-23T15:57:15.513Z,548
2019-02-23T15:58:25.435Z,528
2019-02-23T15:59:35.407Z,508
2019-02-23T16:00:45.334Z,484
2019-02-23T16:01:55.253Z,464
2019-02-23T16:03:05.259Z,448
2019-02-23T16:04:15.335Z,436
2019-02-23T16:05:25.295Z,420
2019-02-23T16:06:38.662Z,400
2019-02-23T16:07:48.619Z,392
2019-02-23T16:08:58.543Z,376